createdAt,value
2019-01-17T00:01:06.943Z,-0.27
2019-01-17T00:03:56.277Z,-0.23
2019-01-17T00:06:34.779Z,-0.24
2019-01-17T00:09:08.022Z,-0.27
2019-01-17T00:11:49.359Z,-0.29
2019-01-17T00:14:27.614Z,-0.33
2019-01-17T00:17:16.899Z,-0.30
2019-01-17T00:19:49.547Z,-0.33
2019-01-17T00:22:22.222Z,-0.32
2019-01-17T00:25:07.027Z,-0.37
2019-01-17T00:27:39.706Z,-0.46
2019-01-17T00:30:29.707Z,-0.44
2019-01-17T00:33:18.006Z,-0.39
2019-01-17T00:36:03.036Z,-0.38
2019-01-17T00:38:35.711Z,-0.37
2019-01-17T00:41:10.959Z,-0.36
2019-01-17T00:43:58.594Z,-0.36
2019-01-17T00:46:31.208Z,-0.35
2019-01-17T00:49:03.864Z,-0.33
2019-01-17T00:51:36.793Z,-0.37
2019-01-17T00:54:21.380Z,-0.30
2019-01-17T00:56:56.816Z,-0.32
2019-01-17T00:59:47.603Z,-0.31
2019-01-17T01:02:20.403Z,-0.30
2019-01-17T01:04:53.068Z,-0.27
2019-01-17T01:07:25.760Z,-0.20
2019-01-17T01:10:04.522Z,-0.25
2019-01-17T01:12:42.897Z,-0.30
2019-01-17T01:15:21.137Z,-0.32
2019-01-17T01:17:56.786Z,-0.41
2019-01-17T01:20:41.457Z,-0.43
2019-01-17T01:23:23.403Z,-0.46
2019-01-17T01:25:56.194Z,-0.40
2019-01-17T01:28:31.828Z,-0.45
2019-01-17T01:31:16.644Z,-0.47
2019-01-17T01:33:49.323Z,-0.53
2019-01-17T01:36:24.780Z,-0.57
2019-01-17T01:39:12.698Z,-0.55
2019-01-17T01:41:51.124Z,-0.58
2019-01-17T01:44:40.506Z,-0.66
2019-01-17T01:47:16.374Z,-0.65
2019-01-17T01:50:05.610Z,-0.73
2019-01-17T01:52:41.054Z,-0.78
2019-01-17T01:55:11.939Z,-0.65
2019-01-17T01:57:42.693Z,-0.62
2019-01-17T02:00:13.686Z,-0.54
2019-01-17T02:02:44.455Z,-0.54
2019-01-17T02:05:15.367Z,-0.58
2019-01-17T02:07:47.016Z,-0.51
2019-01-17T02:10:17.788Z,-0.54
2019-01-17T02:12:49.210Z,-0.51
2019-01-17T02:15:20.024Z,-0.61
2019-01-17T02:17:50.775Z,-0.64
2019-01-17T02:20:21.758Z,-0.71
2019-01-17T02:22:52.532Z,-0.70
2019-01-17T02:25:24.734Z,-0.64
2019-01-17T02:27:55.571Z,-0.73
2019-01-17T02:30:26.353Z,-0.73
2019-01-17T02:32:57.102Z,-0.71
2019-01-17T02:35:29.827Z,-0.66
2019-01-17T02:38:00.727Z,-0.65
2019-01-17T02:40:31.504Z,-0.64
2019-01-17T02:43:02.363Z,-0.68
2019-01-17T02:45:33.276Z,-0.68
2019-01-17T02:48:04.259Z,-0.72
2019-01-17T02:50:35.063Z,-0.74
2019-01-17T02:53:05.837Z,-0.70
2019-01-17T02:55:36.638Z,-0.70
2019-01-17T02:58:07.507Z,-0.88
2019-01-17T03:00:38.430Z,-0.86
2019-01-17T03:03:09.187Z,-0.93
2019-01-17T03:05:40.172Z,-1.06
2019-01-17T03:08:11.048Z,-1.07
2019-01-17T03:10:42.054Z,-0.98
2019-01-17T03:13:12.803Z,-0.93
2019-01-17T03:15:43.884Z,-0.98
2019-01-17T03:18:14.770Z,-0.94
2019-01-17T03:20:45.552Z,-0.85
2019-01-17T03:23:16.430Z,-0.72
2019-01-17T03:25:47.329Z,-0.61
2019-01-17T03:28:18.269Z,-0.61
2019-01-17T03:30:49.017Z,-0.52
2019-01-17T03:33:19.777Z,-0.48
2019-01-17T03:35:50.650Z,-0.51
2019-01-17T03:38:21.525Z,-0.46
2019-01-17T03:40:52.365Z,-0.52
2019-01-17T03:43:23.126Z,-0.48
2019-01-17T03:45:53.908Z,-0.54
2019-01-17T03:48:24.695Z,-0.53
2019-01-17T03:50:55.483Z,-0.55
2019-01-17T03:53:26.385Z,-0.51
2019-01-17T03:55:57.546Z,-0.46
2019-01-17T03:58:28.326Z,-0.42
2019-01-17T04:00:59.221Z,-0.35
2019-01-17T04:03:30.052Z,-0.34
2019-01-17T04:06:00.830Z,-0.27
2019-01-17T04:08:31.751Z,-0.16
2019-01-17T04:11:02.728Z,-0.16
2019-01-17T04:13:33.748Z,-0.13
2019-01-17T04:16:04.656Z,-0.09
2019-01-17T04:18:35.469Z,-0.09
2019-01-17T04:21:06.342Z,-0.17
2019-01-17T04:23:37.135Z,-0.06
2019-01-17T04:26:08.010Z,0.06
2019-01-17T04:28:38.798Z,0.17
2019-01-17T04:31:09.595Z,0.06
2019-01-17T04:33:40.484Z,0.16
2019-01-17T04:36:11.332Z,0.07
2019-01-17T04:38:42.091Z,-0.12
2019-01-17T04:41:12.934Z,-0.14
2019-01-17T04:43:43.768Z,-0.20
2019-01-17T04:46:14.680Z,0.04
2019-01-17T04:48:45.452Z,0.02
2019-01-17T04:51:16.394Z,0.10
2019-01-17T04:53:47.192Z,0.36
2019-01-17T04:56:17.967Z,0.64
2019-01-17T04:58:48.747Z,0.65
2019-01-17T05:01:19.595Z,0.83
2019-01-17T05:03:50.444Z,1.00
2019-01-17T05:06:21.271Z,1.46
2019-01-17T05:08:52.099Z,1.40
2019-01-17T05:11:22.931Z,1.91
2019-01-17T05:13:53.776Z,2.17
2019-01-17T05:16:24.619Z,2.29
2019-01-17T05:18:55.432Z,2.37
2019-01-17T05:21:26.313Z,2.29
2019-01-17T05:23:57.153Z,2.39
2019-01-17T05:26:27.984Z,2.41
2019-01-17T05:28:58.789Z,2.47
2019-01-17T05:31:29.591Z,2.55
2019-01-17T05:34:00.348Z,2.40
2019-01-17T05:36:31.294Z,2.55
2019-01-17T05:39:04.921Z,2.40
2019-01-17T05:41:35.719Z,2.38
2019-01-17T05:44:06.830Z,2.22
2019-01-17T05:46:37.655Z,2.14
2019-01-17T05:49:08.440Z,2.11
2019-01-17T05:51:39.466Z,2.05
2019-01-17T05:54:10.223Z,2.19
2019-01-17T05:56:40.994Z,2.05
2019-01-17T05:59:11.756Z,1.94
2019-01-17T06:01:42.530Z,1.86
2019-01-17T06:04:13.287Z,1.76
2019-01-17T06:06:44.075Z,1.83
2019-01-17T06:09:14.838Z,1.24
2019-01-17T06:11:45.637Z,0.84
2019-01-17T06:14:16.399Z,0.52
2019-01-17T06:16:47.178Z,0.46
2019-01-17T06:19:17.938Z,0.27
2019-01-17T06:21:48.716Z,0.03
2019-01-17T06:24:19.478Z,-0.02
2019-01-17T06:26:51.081Z,-0.10
2019-01-17T06:29:21.846Z,-0.14
2019-01-17T06:31:52.628Z,-0.16
2019-01-17T06:34:23.389Z,-0.01
2019-01-17T06:36:54.153Z,0.16
2019-01-17T06:39:24.921Z,0.45
2019-01-17T06:41:55.714Z,0.58
2019-01-17T06:44:26.498Z,0.62
2019-01-17T06:46:57.270Z,0.72
2019-01-17T06:49:28.082Z,1.00
2019-01-17T06:51:58.858Z,1.01
2019-01-17T06:54:29.620Z,1.16
2019-01-17T06:57:00.407Z,1.85
2019-01-17T06:59:31.168Z,2.19
2019-01-17T07:02:02.039Z,2.47
2019-01-17T07:04:32.815Z,2.78
2019-01-17T07:07:03.604Z,2.97
2019-01-17T07:09:34.375Z,3.01
2019-01-17T07:12:05.125Z,3.19
2019-01-17T07:14:35.900Z,3.21
2019-01-17T07:17:06.660Z,3.28
2019-01-17T07:19:37.450Z,2.59
2019-01-17T07:22:08.209Z,2.05
2019-01-17T07:24:39.005Z,1.88
2019-01-17T07:27:09.763Z,1.58
2019-01-17T07:29:40.536Z,1.49
2019-01-17T07:32:11.295Z,1.51
2019-01-17T07:34:42.165Z,1.58
2019-01-17T07:37:12.940Z,1.48
2019-01-17T07:39:43.708Z,1.40
2019-01-17T07:42:14.473Z,1.05
2019-01-17T07:44:45.250Z,1.43
2019-01-17T07:47:16.006Z,1.18
2019-01-17T07:49:46.766Z,1.19
2019-01-17T07:52:17.545Z,1.19
2019-01-17T07:54:48.407Z,1.11
2019-01-17T07:57:19.387Z,1.02
2019-01-17T07:59:50.175Z,1.02
2019-01-17T08:02:20.920Z,0.88
2019-01-17T08:04:51.697Z,0.86
2019-01-17T08:07:22.470Z,0.91
2019-01-17T08:09:53.240Z,0.82
2019-01-17T08:12:24.253Z,0.80
2019-01-17T08:14:55.026Z,0.85
2019-01-17T08:17:25.783Z,0.90
2019-01-17T08:19:56.549Z,0.83
2019-01-17T08:22:27.309Z,0.81
2019-01-17T08:24:58.201Z,0.87
2019-01-17T08:27:29.015Z,0.85
2019-01-17T08:29:59.783Z,0.87
2019-01-17T08:32:30.548Z,1.00
2019-01-17T08:35:01.418Z,1.00
2019-01-17T08:37:32.194Z,1.10
2019-01-17T08:40:20.266Z,1.13
2019-01-17T08:42:48.224Z,1.10
2019-01-17T08:45:19.086Z,1.23
2019-01-17T08:47:49.842Z,1.23
2019-01-17T08:50:20.722Z,1.05
2019-01-17T08:52:51.484Z,1.12
2019-01-17T08:55:22.274Z,1.23
2019-01-17T08:57:53.026Z,1.21
2019-01-17T09:00:24.902Z,1.22
2019-01-17T09:02:55.673Z,1.19
2019-01-17T09:05:26.451Z,1.29
2019-01-17T09:07:57.214Z,1.41
2019-01-17T09:10:28.078Z,1.40
2019-01-17T09:12:58.850Z,1.46
2019-01-17T09:15:31.328Z,1.45
2019-01-17T09:18:02.783Z,1.57
2019-01-17T09:20:33.556Z,1.49
2019-01-17T09:23:04.307Z,1.46
2019-01-17T09:25:35.092Z,1.59
2019-01-17T09:28:05.852Z,1.69
2019-01-17T09:30:36.627Z,1.67
2019-01-17T09:33:07.381Z,1.83
2019-01-17T09:35:38.163Z,2.00
2019-01-17T09:38:08.920Z,1.99
2019-01-17T09:40:39.732Z,1.86
2019-01-17T09:43:10.478Z,1.93
2019-01-17T09:45:41.265Z,1.92
2019-01-17T09:48:12.030Z,1.91
2019-01-17T09:50:42.907Z,1.89
2019-01-17T09:53:13.675Z,1.85
2019-01-17T09:55:44.449Z,1.86
2019-01-17T09:58:15.216Z,1.74
2019-01-17T10:00:45.991Z,1.78
2019-01-17T10:03:16.749Z,1.64
2019-01-17T10:05:47.522Z,1.83
2019-01-17T10:08:18.624Z,1.90
2019-01-17T10:10:49.413Z,2.03
2019-01-17T10:13:20.162Z,2.17
2019-01-17T10:15:54.751Z,2.29
2019-01-17T10:18:32.116Z,2.21
2019-01-17T10:21:12.268Z,2.24
2019-01-17T10:24:08.305Z,2.23
2019-01-17T10:26:57.593Z,2.13
2019-01-17T10:29:38.257Z,2.43
2019-01-17T10:32:31.087Z,2.64
2019-01-17T10:35:11.924Z,2.91
2019-01-17T10:38:21.324Z,2.94
2019-01-17T10:41:11.066Z,3.20
2019-01-17T10:44:06.608Z,3.35
2019-01-17T10:46:56.256Z,4.10
2019-01-17T10:49:33.570Z,4.46
2019-01-17T10:52:19.801Z,4.60
2019-01-17T10:55:23.612Z,4.73
2019-01-17T10:58:13.601Z,4.77
2019-01-17T11:01:06.231Z,4.78
2019-01-17T11:04:16.811Z,5.02
2019-01-17T11:06:57.110Z,5.30
2019-01-17T11:09:51.390Z,5.31
2019-01-17T11:12:37.572Z,5.59
2019-01-17T11:15:20.898Z,5.92
2019-01-17T11:18:20.088Z,5.99
2019-01-17T11:21:09.569Z,5.84
2019-01-17T11:23:58.993Z,5.81
2019-01-17T11:26:48.138Z,5.99
2019-01-17T11:29:31.387Z,6.16
2019-01-17T11:32:18.372Z,6.24
2019-01-17T11:34:52.980Z,6.21
2019-01-17T11:37:42.650Z,6.29
2019-01-17T11:40:19.940Z,6.46
2019-01-17T11:42:57.060Z,6.97
2019-01-17T11:46:05.243Z,7.25
2019-01-17T11:48:59.696Z,7.83
2019-01-17T11:51:40.527Z,8.22
2019-01-17T11:54:37.803Z,8.37
2019-01-17T11:57:24.349Z,8.56
2019-01-17T12:00:15.762Z,8.39
2019-01-17T12:03:05.321Z,8.23
2019-01-17T12:05:36.093Z,8.22
2019-01-17T12:08:06.857Z,8.45
2019-01-17T12:10:37.652Z,8.45
2019-01-17T12:13:08.395Z,8.34
2019-01-17T12:15:39.166Z,8.30
2019-01-17T12:18:09.943Z,8.53
2019-01-17T12:20:40.718Z,8.57
2019-01-17T12:23:11.475Z,8.47
2019-01-17T12:25:42.881Z,8.61
2019-01-17T12:28:13.682Z,8.52
2019-01-17T12:30:44.451Z,8.59
2019-01-17T12:33:16.721Z,8.77
2019-01-17T12:35:47.502Z,8.97
2019-01-17T12:38:18.279Z,8.82
2019-01-17T12:40:49.062Z,8.56
2019-01-17T12:43:19.825Z,8.57
2019-01-17T12:45:50.603Z,8.49
2019-01-17T12:48:21.364Z,8.35
2019-01-17T12:50:52.135Z,8.41
2019-01-17T12:53:22.887Z,8.48
2019-01-17T12:55:53.647Z,8.41
2019-01-17T12:58:24.408Z,8.31
2019-01-17T13:00:55.166Z,8.37
2019-01-17T13:03:25.934Z,8.33
2019-01-17T13:05:56.690Z,8.40
2019-01-17T13:08:27.443Z,8.26
2019-01-17T13:10:58.212Z,8.20
2019-01-17T13:13:28.965Z,8.30
2019-01-17T13:15:59.777Z,8.22
2019-01-17T13:18:30.531Z,8.15
2019-01-17T13:21:01.295Z,8.15
2019-01-17T13:23:32.052Z,8.06
2019-01-17T13:26:03.113Z,8.14
2019-01-17T13:28:33.871Z,8.19
2019-01-17T13:31:04.745Z,8.15
2019-01-17T13:36:01.207Z,8.16
2019-01-17T13:38:31.982Z,8.11
2019-01-17T13:41:02.757Z,8.05
2019-01-17T13:43:33.523Z,7.96
2019-01-17T13:46:04.669Z,7.94
2019-01-17T13:48:35.437Z,7.92
2019-01-17T13:51:06.195Z,8.00
2019-01-17T13:53:36.957Z,7.95
2019-01-17T13:56:07.722Z,7.79
2019-01-17T13:58:38.495Z,7.83
2019-01-17T14:01:09.251Z,7.72
2019-01-17T14:03:40.029Z,7.59
2019-01-17T14:06:10.770Z,7.58
2019-01-17T14:08:41.549Z,7.52
2019-01-17T14:11:12.335Z,7.50
2019-01-17T14:13:43.100Z,7.48
2019-01-17T14:16:13.864Z,7.53
2019-01-17T14:18:44.678Z,7.53
2019-01-17T14:21:15.440Z,7.47
2019-01-17T14:23:46.507Z,7.48
2019-01-17T14:26:17.275Z,7.45
2019-01-17T14:28:48.165Z,7.44
2019-01-17T14:31:18.899Z,7.35
2019-01-17T14:33:49.689Z,7.26
2019-01-17T14:36:22.195Z,7.21
2019-01-17T14:38:52.967Z,7.19
2019-01-17T14:41:23.738Z,7.11
2019-01-17T14:43:54.492Z,7.08
2019-01-17T14:46:25.244Z,7.05
2019-01-17T14:48:56.027Z,6.95
2019-01-17T14:51:26.801Z,6.77
2019-01-17T14:53:57.580Z,6.72
2019-01-17T14:56:28.362Z,6.65
2019-01-17T14:58:59.153Z,6.60
2019-01-17T15:01:29.905Z,6.56
2019-01-17T15:04:00.707Z,6.53
2019-01-17T15:06:31.453Z,6.43
2019-01-17T15:09:05.750Z,6.28
2019-01-17T15:14:34.345Z,6.13
2019-01-17T15:17:05.101Z,6.16
2019-01-17T15:19:35.880Z,6.12
2019-01-17T15:22:06.635Z,6.18
2019-01-17T15:24:37.407Z,6.14
2019-01-17T15:27:08.154Z,6.09
2019-01-17T15:29:38.935Z,6.11
2019-01-17T15:32:09.681Z,6.11
2019-01-17T15:34:40.560Z,6.07
2019-01-17T15:37:11.332Z,6.20
2019-01-17T15:39:42.091Z,6.18
2019-01-17T15:42:12.873Z,6.06
2019-01-17T15:44:43.647Z,5.62
2019-01-17T15:47:14.414Z,5.91
2019-01-17T15:49:45.161Z,5.81
2019-01-17T15:52:15.927Z,5.71
2019-01-17T15:54:46.791Z,5.66
2019-01-17T15:57:17.555Z,5.57
2019-01-17T15:59:48.356Z,5.62
2019-01-17T16:02:19.175Z,5.63
2019-01-17T16:04:49.934Z,5.42
2019-01-17T16:07:20.707Z,5.34
2019-01-17T16:09:51.455Z,5.33
2019-01-17T16:12:22.218Z,5.42
2019-01-17T16:14:52.974Z,5.45
2019-01-17T16:17:27.228Z,5.43
2019-01-17T16:19:57.993Z,5.53
2019-01-17T16:22:28.768Z,5.67
2019-01-17T16:24:59.520Z,5.69
2019-01-17T16:27:30.291Z,5.67
2019-01-17T16:30:01.871Z,5.69
2019-01-17T16:32:32.640Z,5.71
2019-01-17T16:35:03.695Z,5.72
2019-01-17T16:37:34.476Z,5.65
2019-01-17T16:40:08.137Z,5.58
2019-01-17T16:42:39.021Z,5.57
2019-01-17T16:45:12.779Z,5.57
2019-01-17T16:47:43.561Z,5.52
2019-01-17T16:50:16.615Z,5.47
2019-01-17T16:52:47.400Z,5.35
2019-01-17T16:55:18.156Z,5.28
2019-01-17T16:57:49.497Z,5.23
2019-01-17T17:00:32.514Z,5.18
2019-01-17T17:03:03.305Z,5.19
2019-01-17T17:05:34.058Z,5.13
2019-01-17T17:08:04.820Z,5.12
2019-01-17T17:10:35.812Z,5.09
2019-01-17T17:13:06.599Z,5.04
2019-01-17T17:15:37.385Z,5.04
2019-01-17T17:18:08.156Z,5.05
2019-01-17T17:20:38.946Z,5.07
2019-01-17T17:23:09.716Z,5.04
2019-01-17T17:25:41.807Z,5.02
2019-01-17T17:28:12.590Z,4.98
2019-01-17T17:30:45.369Z,4.95
2019-01-17T17:33:16.170Z,4.97
2019-01-17T17:35:46.927Z,5.00
2019-01-17T17:38:17.724Z,5.00
2019-01-17T17:40:48.503Z,4.89
2019-01-17T17:43:19.289Z,4.91
2019-01-17T17:45:50.051Z,4.87
2019-01-17T17:48:20.815Z,4.92
2019-01-17T17:50:51.615Z,4.85
2019-01-17T17:53:22.392Z,4.86
2019-01-17T17:55:53.793Z,4.86
2019-01-17T17:58:24.618Z,4.88
2019-01-17T18:00:57.271Z,4.85
2019-01-17T18:03:28.047Z,4.85
2019-01-17T18:05:58.854Z,4.91
2019-01-17T18:08:30.017Z,4.91
2019-01-17T18:11:00.792Z,4.93
2019-01-17T18:13:31.588Z,4.94
2019-01-17T18:16:02.855Z,4.94
2019-01-17T18:18:34.281Z,4.87
2019-01-17T18:21:05.339Z,4.86
2019-01-17T18:23:36.100Z,4.81
2019-01-17T18:26:07.195Z,4.77
2019-01-17T18:28:37.980Z,4.70
2019-01-17T18:31:08.731Z,4.62
2019-01-17T18:33:39.517Z,4.63
2019-01-17T18:36:10.279Z,4.60
2019-01-17T18:38:41.461Z,4.65
2019-01-17T18:41:12.239Z,4.64
2019-01-17T18:43:43.038Z,4.72
2019-01-17T18:46:13.783Z,4.75
2019-01-17T18:48:44.540Z,4.76
2019-01-17T18:51:15.441Z,4.77
2019-01-17T18:53:46.194Z,4.70
2019-01-17T18:56:16.975Z,4.60
2019-01-17T18:58:47.822Z,4.55
2019-01-17T19:01:18.635Z,4.45
2019-01-17T19:03:49.500Z,4.49
2019-01-17T19:06:20.258Z,4.51
2019-01-17T19:08:51.148Z,4.55
2019-01-17T19:11:21.959Z,4.46
2019-01-17T19:13:52.835Z,4.45
2019-01-17T19:16:23.613Z,4.53
2019-01-17T19:18:54.393Z,4.54
2019-01-17T19:21:25.204Z,4.42
2019-01-17T19:23:55.968Z,4.45
2019-01-17T19:26:26.949Z,4.52
2019-01-17T19:28:57.717Z,4.54
2019-01-17T19:31:28.504Z,4.50
2019-01-17T19:33:59.267Z,4.52
2019-01-17T19:36:30.036Z,4.42
2019-01-17T19:39:00.798Z,4.41
2019-01-17T19:41:31.582Z,4.40
2019-01-17T19:44:02.660Z,4.47
2019-01-17T19:46:33.530Z,4.54
2019-01-17T19:49:04.286Z,4.57
2019-01-17T19:51:35.107Z,4.58
2019-01-17T19:54:05.863Z,4.50
2019-01-17T19:56:36.627Z,4.51
2019-01-17T19:59:07.388Z,4.48
2019-01-17T20:01:38.180Z,4.43
2019-01-17T20:04:08.918Z,4.52
2019-01-17T20:06:39.704Z,4.59
2019-01-17T20:09:12.475Z,4.54
2019-01-17T20:11:43.260Z,4.65
2019-01-17T20:14:14.130Z,4.68
2019-01-17T20:16:45.005Z,4.67
2019-01-17T20:19:15.789Z,4.75
2019-01-17T20:21:46.660Z,4.65
2019-01-17T20:24:17.503Z,4.24
2019-01-17T20:26:48.283Z,4.59
2019-01-17T20:29:19.048Z,4.62
2019-01-17T20:31:49.806Z,4.21
2019-01-17T20:34:20.566Z,4.50
2019-01-17T20:36:51.337Z,4.51
2019-01-17T20:39:22.123Z,4.60
2019-01-17T20:41:52.898Z,4.47
2019-01-17T20:44:23.666Z,3.51
2019-01-17T20:46:54.430Z,2.96
2019-01-17T20:49:25.270Z,2.77
2019-01-17T20:51:57.561Z,2.58
2019-01-17T20:54:28.345Z,2.52
2019-01-17T20:56:59.198Z,2.51
2019-01-17T20:59:29.978Z,2.50
2019-01-17T21:02:04.551Z,2.50
2019-01-17T21:04:35.336Z,2.48
2019-01-17T21:07:06.114Z,2.50
2019-01-17T21:09:36.987Z,2.10
2019-01-17T21:12:07.843Z,2.42
2019-01-17T21:14:38.601Z,2.40
2019-01-17T21:17:09.537Z,2.42
2019-01-17T21:19:40.410Z,2.39
2019-01-17T21:22:11.183Z,2.33
2019-01-17T21:24:41.941Z,2.27
2019-01-17T21:27:12.822Z,2.28
2019-01-17T21:29:43.646Z,2.42
2019-01-17T21:32:14.417Z,2.45
2019-01-17T21:34:45.173Z,2.48
2019-01-17T21:37:16.237Z,2.55
2019-01-17T21:39:47.056Z,2.58
2019-01-17T21:42:17.901Z,2.57
2019-01-17T21:44:48.791Z,2.51
2019-01-17T21:47:19.564Z,2.44
2019-01-17T21:49:50.316Z,2.24
2019-01-17T21:52:21.082Z,2.06
2019-01-17T21:54:51.862Z,2.07
2019-01-17T21:57:22.885Z,2.11
2019-01-17T21:59:53.662Z,1.95
2019-01-17T22:02:24.470Z,1.93
2019-01-17T22:04:55.244Z,1.96
2019-01-17T22:07:26.003Z,1.92
2019-01-17T22:10:01.574Z,1.95
2019-01-17T22:12:29.445Z,1.88
2019-01-17T22:15:00.219Z,1.97
2019-01-17T22:17:31.009Z,1.97
2019-01-17T22:20:03.469Z,1.91
2019-01-17T22:22:34.236Z,1.94
2019-01-17T22:25:08.209Z,2.03
2019-01-17T22:27:39.066Z,2.01
2019-01-17T22:30:13.330Z,2.11
2019-01-17T22:32:44.180Z,2.13
2019-01-17T22:35:15.033Z,2.05
2019-01-17T22:37:45.828Z,2.18
2019-01-17T22:40:16.581Z,2.11
2019-01-17T22:42:47.401Z,2.01
2019-01-17T22:45:21.369Z,1.91
2019-01-17T22:47:52.130Z,1.88
2019-01-17T22:50:22.904Z,1.91
2019-01-17T22:52:53.800Z,1.90
2019-01-17T22:55:24.557Z,1.89
2019-01-17T22:57:55.306Z,1.72
2019-01-17T23:00:53.025Z,1.73
2019-01-17T23:03:27.212Z,1.78
2019-01-17T23:05:57.985Z,1.81
2019-01-17T23:08:28.830Z,2.00
2019-01-17T23:10:59.583Z,2.06
2019-01-17T23:13:30.363Z,2.25
2019-01-17T23:16:01.128Z,2.28
2019-01-17T23:18:32.201Z,2.33
2019-01-17T23:21:03.057Z,2.26
2019-01-17T23:23:33.843Z,2.08
2019-01-17T23:26:04.724Z,1.93
2019-01-17T23:28:35.463Z,1.80
2019-01-17T23:31:06.235Z,1.67
2019-01-17T23:33:36.995Z,1.54
2019-01-17T23:36:07.774Z,1.59
2019-01-17T23:38:38.539Z,1.58
2019-01-17T23:41:09.321Z,1.67
2019-01-17T23:43:40.122Z,1.55
2019-01-17T23:46:10.963Z,1.40
2019-01-17T23:48:41.723Z,1.27
2019-01-17T23:51:12.527Z,1.23
2019-01-17T23:53:43.289Z,1.24
2019-01-17T23:56:14.106Z,1.30
2019-01-17T23:58:45.139Z,1.26
